createdAt,value
2024-02-02T00:01:37.715Z,47.7531022
2024-02-02T00:03:38.952Z,47.717584699999996
2024-02-02T00:05:39.882Z,47.661080999999996
2024-02-02T00:07:40.952Z,47.5012565
2024-02-02T00:09:42.043Z,47.296225500000006
2024-02-02T00:11:43.136Z,47.2784661
2024-02-02T00:13:44.212Z,47.2800806
2024-02-02T00:15:45.302Z,47.205816000000006
2024-02-02T00:17:46.417Z,47.2284171
2024-02-02T00:19:47.493Z,47.2655484
2024-02-02T00:21:48.569Z,47.233260200000004
2024-02-02T00:23:50.687Z,47.2171156
2024-02-02T00:25:50.741Z,47.273621000000006
2024-02-02T00:27:51.828Z,47.2703916
2024-02-02T00:29:52.945Z,47.265547
2024-02-02T00:31:53.991Z,47.1719099
2024-02-02T00:33:55.339Z,47.1089466
2024-02-02T00:35:56.182Z,47.1250912
2024-02-02T00:37:57.253Z,47.115405
2024-02-02T00:39:58.333Z,47.1315504
2024-02-02T00:41:59.440Z,47.21711560000001
2024-02-02T00:44:00.534Z,47.197743200000005
2024-02-02T00:46:01.635Z,47.1250926
2024-02-02T00:48:02.836Z,47.10087540000001
2024-02-02T00:50:03.815Z,47.055671300000014
2024-02-02T00:52:04.856Z,47.081502400000005
2024-02-02T00:54:05.937Z,47.029841700000006
2024-02-02T00:56:07.024Z,47.05244490000001
2024-02-02T00:58:08.107Z,47.102493200000005
2024-02-02T01:00:24.542Z,47.197745600000005
2024-02-02T01:02:10.268Z,47.1412394
2024-02-02T01:04:11.375Z,47.2477901
2024-02-02T01:06:12.506Z,47.238102500000004
2024-02-02T01:08:13.503Z,47.12347870000001
2024-02-02T01:10:14.597Z,47.0879604
2024-02-02T01:12:15.695Z,47.029842200000004
2024-02-02T01:14:16.767Z,46.9539653
2024-02-02T01:16:17.903Z,46.983025299999994
2024-02-02T01:18:19.220Z,47.170297100000006
2024-02-02T01:20:20.038Z,47.393081499999994
2024-02-02T01:22:21.105Z,47.646543300000005
2024-02-02T01:24:22.196Z,47.967806700000004
2024-02-02T01:26:23.275Z,48.1550763
2024-02-02T01:28:24.353Z,48.201893299999995
2024-02-02T01:30:25.523Z,48.12279169999999
2024-02-02T01:32:26.516Z,48.09211929999999
2024-02-02T01:34:27.649Z,47.9516717
2024-02-02T01:36:28.776Z,47.958129099999994
2024-02-02T01:38:29.825Z,48.051759499999996
2024-02-02T01:40:30.883Z,48.0856586
2024-02-02T01:42:31.988Z,48.040456199999994
2024-02-02T01:44:33.032Z,48.1066454
2024-02-02T01:46:34.130Z,48.11148899999999
2024-02-02T01:48:35.377Z,48.13731729999999
2024-02-02T01:50:36.307Z,48.2180343
2024-02-02T01:52:37.390Z,48.218030799999994
2024-02-02T01:54:38.474Z,47.96456760000001
2024-02-02T01:56:39.548Z,47.74500930000001
2024-02-02T01:58:40.630Z,47.480253700000006
2024-02-02T02:00:41.747Z,47.292989500000004
2024-02-02T02:02:42.812Z,47.3172073
2024-02-02T02:04:43.888Z,47.430216
2024-02-02T02:06:44.984Z,47.42214310000001
2024-02-02T02:08:46.048Z,47.347879000000006
2024-02-02T02:10:47.133Z,47.3220496
2024-02-02T02:12:48.226Z,47.2445582
2024-02-02T02:14:49.325Z,47.294607400000004
2024-02-02T02:16:50.408Z,47.39147440000001
2024-02-02T02:18:52.911Z,47.556146600000005
2024-02-02T02:20:52.604Z,47.4899537
2024-02-02T02:22:53.659Z,47.380173799999994
2024-02-02T02:24:54.751Z,47.207429899999994
2024-02-02T02:26:55.861Z,47.0798901
2024-02-02T02:28:57.223Z,47.007241400000005
2024-02-02T02:30:57.994Z,46.97172379999999
2024-02-02T02:32:59.233Z,47.03791449999999
2024-02-02T02:35:00.154Z,47.1589956
2024-02-02T02:37:01.241Z,47.2364874
2024-02-02T02:39:02.373Z,47.2752338
2024-02-02T02:41:03.417Z,47.3381973
2024-02-02T02:43:04.511Z,47.27200599999999
2024-02-02T02:45:05.644Z,47.2106578
2024-02-02T02:47:06.687Z,47.1735269
2024-02-02T02:49:07.865Z,47.1105639
2024-02-02T02:51:08.889Z,47.15253880000001
2024-02-02T02:53:09.938Z,47.30913710000001
2024-02-02T02:55:11.031Z,47.45120680000001
2024-02-02T02:57:12.153Z,47.4689647
2024-02-02T02:59:13.196Z,47.35272629999999
2024-02-02T03:01:14.301Z,47.2655463
2024-02-02T03:03:15.392Z,47.186439699999994
2024-02-02T03:05:16.461Z,47.10248949999999
2024-02-02T03:07:17.752Z,46.955578999999986
2024-02-02T03:09:18.647Z,47.0637467
2024-02-02T03:11:19.718Z,47.1977457
2024-02-02T03:13:20.811Z,47.097653099999995
2024-02-02T03:15:21.914Z,46.9636594
2024-02-02T03:17:22.957Z,46.857108499999995
2024-02-02T03:19:24.194Z,46.6294756
2024-02-02T03:21:25.225Z,46.4502739
2024-02-02T03:23:26.235Z,46.422828100000004
2024-02-02T03:25:27.302Z,46.526148899999995
2024-02-02T03:27:28.450Z,46.616555899999994
2024-02-02T03:29:29.486Z,46.563282599999994
2024-02-02T03:31:30.573Z,46.6278586
2024-02-02T03:33:31.763Z,46.6359307
2024-02-02T03:35:32.734Z,46.658532
2024-02-02T03:37:33.824Z,46.553597
2024-02-02T03:39:34.923Z,46.522925400000005
2024-02-02T03:41:35.987Z,46.4083037
2024-02-02T03:43:37.071Z,46.269467
2024-02-02T03:45:38.205Z,46.1161021
2024-02-02T03:47:39.267Z,46.14839010000001
2024-02-02T03:49:40.364Z,46.245250399999996
2024-02-02T03:51:41.444Z,46.1919769
2024-02-02T03:53:42.509Z,46.1629196
2024-02-02T03:55:43.602Z,46.224264500000004
2024-02-02T03:57:44.689Z,46.2371783
2024-02-02T03:59:45.791Z,46.216191099999996
2024-02-02T04:01:46.868Z,46.2646217
2024-02-02T04:03:47.972Z,46.3211232
2024-02-02T04:05:49.039Z,46.3873126
2024-02-02T04:07:50.098Z,46.390540900000005
2024-02-02T04:09:51.191Z,46.3873117
2024-02-02T04:11:52.335Z,46.4761024
2024-02-02T04:13:53.355Z,46.4987035
2024-02-02T04:15:54.459Z,46.3534127
2024-02-02T04:17:55.555Z,46.5180814
2024-02-02T04:19:56.714Z,46.644003
2024-02-02T04:21:57.754Z,46.5390686
2024-02-02T04:23:58.848Z,46.5003234
2024-02-02T04:25:59.886Z,46.5148494
2024-02-02T04:28:00.963Z,46.3211218
2024-02-02T04:30:02.111Z,46.191971699999996
2024-02-02T04:32:03.141Z,46.1031836
2024-02-02T04:34:04.338Z,46.03215290000001
2024-02-02T04:36:05.314Z,46.0111682
2024-02-02T04:38:06.394Z,45.9369098
2024-02-02T04:40:07.491Z,45.9804983
2024-02-02T04:42:08.599Z,46.0014857
2024-02-02T04:44:09.643Z,46.043459999999996
2024-02-02T04:46:10.750Z,46.2533294
2024-02-02T04:48:12.028Z,46.242029200000005
2024-02-02T04:50:12.907Z,46.1370953
2024-02-02T04:52:13.998Z,46.0676789
2024-02-02T04:54:15.105Z,46.011176100000014
2024-02-02T04:56:16.152Z,45.84328060000001
2024-02-02T04:58:17.248Z,45.977270700000005
2024-02-02T05:00:18.334Z,45.935298
2024-02-02T05:02:19.437Z,45.9175386
2024-02-02T05:04:20.559Z,45.972426
2024-02-02T05:06:21.653Z,45.9530512
2024-02-02T05:08:22.725Z,45.941751100000005
2024-02-02T05:10:23.762Z,45.965968000000004
2024-02-02T05:12:24.867Z,46.1354738
2024-02-02T05:14:25.919Z,46.12740230000001
2024-02-02T05:16:27.004Z,46.0789738
2024-02-02T05:18:28.173Z,46.024087400000006
2024-02-02T05:20:29.173Z,46.1387052
2024-02-02T05:22:30.279Z,46.028930800000005
2024-02-02T05:24:37.209Z,46.04830200000001
2024-02-02T05:26:32.432Z,46.1209463
2024-02-02T05:28:33.521Z,46.1225589
2024-02-02T05:30:34.670Z,46.1500028
2024-02-02T05:32:35.744Z,46.358254699999996
2024-02-02T05:34:36.826Z,46.3356553
2024-02-02T05:36:37.891Z,46.2904543
2024-02-02T05:38:38.939Z,46.2791534
2024-02-02T05:40:40.031Z,46.1871357
2024-02-02T05:42:41.135Z,46.0644421
2024-02-02T05:44:42.184Z,46.1257864
2024-02-02T05:46:43.293Z,46.1984324
2024-02-02T05:48:44.484Z,46.2904509
2024-02-02T05:50:45.489Z,46.3824687
2024-02-02T05:52:46.579Z,46.4438153
2024-02-02T05:54:47.618Z,46.485788799999995
2024-02-02T05:56:48.737Z,46.55359219999999
2024-02-02T05:58:49.804Z,46.6020241
2024-02-02T06:00:50.986Z,46.5600502
2024-02-02T06:02:51.980Z,46.6359276
2024-02-02T06:04:53.075Z,46.6536858
2024-02-02T06:06:54.180Z,46.6181696
2024-02-02T06:08:57.074Z,46.5035503
2024-02-02T06:10:56.314Z,46.479335400000004
2024-02-02T06:12:57.403Z,46.2468668
2024-02-02T06:14:58.542Z,46.174221
2024-02-02T06:16:59.606Z,46.0628308
2024-02-02T06:19:00.859Z,46.075743900000006
2024-02-02T06:21:01.730Z,46.025699200000005
2024-02-02T06:23:04.252Z,46.146774199999996
2024-02-02T06:25:03.926Z,46.138701600000005
2024-02-02T06:27:05.011Z,46.16937310000001
2024-02-02T06:29:06.100Z,46.17583069999999
2024-02-02T06:31:07.168Z,46.15161549999999
2024-02-02T06:33:08.330Z,46.15968769999999
2024-02-02T06:35:09.481Z,46.2662362
2024-02-02T06:37:10.420Z,46.216193999999994
2024-02-02T06:39:11.531Z,46.169377600000004
2024-02-02T06:41:12.592Z,46.1806779
2024-02-02T06:43:13.665Z,46.070903099999995
2024-02-02T06:45:14.776Z,45.8594245
2024-02-02T06:47:15.844Z,45.8497374
2024-02-02T06:49:17.036Z,45.709291300000004
2024-02-02T06:51:18.205Z,45.6544046
2024-02-02T06:53:19.118Z,45.6108173
2024-02-02T06:55:20.237Z,45.6527885
2024-02-02T06:57:21.345Z,45.659245899999995
2024-02-02T06:59:22.363Z,45.75771999999999
2024-02-02T07:01:23.487Z,45.72704840000001
2024-02-02T07:03:24.630Z,45.8190645
2024-02-02T07:05:25.664Z,45.82552220000001
2024-02-02T07:07:26.697Z,45.8319783
2024-02-02T07:09:28.059Z,45.806150200000005
2024-02-02T07:11:30.456Z,45.8303643
2024-02-02T07:13:29.950Z,45.7092904
2024-02-02T07:15:31.135Z,45.643103100000005
2024-02-02T07:17:32.133Z,45.6269612
2024-02-02T07:19:33.273Z,45.7609504
2024-02-02T07:21:34.400Z,45.8335949
2024-02-02T07:23:37.236Z,45.8884816
2024-02-02T07:26:37.008Z,46.0838147
2024-02-02T07:28:39.154Z,46.024082699999994
2024-02-02T07:30:41.823Z,45.925608800000006
2024-02-02T07:32:45.239Z,46.01924150000001
2024-02-02T07:35:41.924Z,46.0321568
2024-02-02T07:37:42.995Z,45.990184000000006
2024-02-02T07:39:44.103Z,46.0127858
2024-02-02T07:41:45.174Z,46.0450722
2024-02-02T07:43:46.305Z,45.8933241
2024-02-02T07:45:47.338Z,45.7561063
2024-02-02T07:47:48.447Z,45.775478199999995
2024-02-02T07:49:49.570Z,45.765793
2024-02-02T07:51:50.585Z,45.764179600000006
2024-02-02T07:53:51.705Z,45.7641798
2024-02-02T07:55:53.229Z,45.9175418
2024-02-02T07:57:53.862Z,45.8804128
2024-02-02T07:59:55.984Z,45.940141
2024-02-02T08:01:56.070Z,46.00148550000001
2024-02-02T08:03:57.245Z,46.048300700000006
2024-02-02T08:05:58.255Z,46.069286000000005
2024-02-02T08:07:59.258Z,46.14354590000001
2024-02-02T08:10:00.381Z,46.0999598
2024-02-02T08:12:01.560Z,45.9239961
2024-02-02T08:14:03.149Z,45.8610368
2024-02-02T08:16:03.889Z,45.8384363
2024-02-02T08:18:04.792Z,45.6414854
2024-02-02T08:20:05.860Z,45.63502870000001
2024-02-02T08:22:07.283Z,45.720589100000005
2024-02-02T08:24:07.998Z,45.72543280000001
2024-02-02T08:26:09.041Z,45.66085880000001
2024-02-02T08:28:13.113Z,45.8158358
2024-02-02T08:31:11.773Z,45.756105000000005
2024-02-02T08:33:12.903Z,45.7367335
2024-02-02T08:35:17.423Z,45.6947608
2024-02-02T08:38:15.646Z,45.75287900000001
2024-02-02T08:40:16.662Z,45.741579200000004
2024-02-02T08:42:17.744Z,45.7948532
2024-02-02T08:44:18.817Z,45.8093822
2024-02-02T08:46:20.473Z,45.8352111
2024-02-02T08:48:21.033Z,45.69153440000001
2024-02-02T08:50:22.070Z,45.6802337
2024-02-02T08:52:23.156Z,45.7641779
2024-02-02T08:54:24.267Z,45.87233859999999
2024-02-02T08:56:25.662Z,45.809379
2024-02-02T08:58:26.386Z,45.87879520000001
2024-02-02T09:00:27.506Z,45.8594217
2024-02-02T09:02:28.574Z,45.7367323
2024-02-02T09:04:29.730Z,45.641486300000004
2024-02-02T09:06:30.778Z,45.580141700000006
2024-02-02T09:08:31.846Z,45.478438000000004
2024-02-02T09:10:32.982Z,45.4800527
2024-02-02T09:12:34.079Z,45.42839349999999
2024-02-02T09:14:35.259Z,45.4752089
2024-02-02T09:16:36.157Z,45.5510828
2024-02-02T09:18:37.307Z,45.641485700000004
2024-02-02T09:20:38.345Z,45.657629500000006
2024-02-02T09:22:39.426Z,45.731889100000004
2024-02-02T09:24:41.134Z,45.649559800000006
2024-02-02T09:26:41.587Z,45.597901500000006
2024-02-02T09:28:42.710Z,45.626959899999996
2024-02-02T09:30:43.856Z,45.7092903
2024-02-02T09:32:45.217Z,45.601128599999996
2024-02-02T09:34:46.066Z,45.631800500000004
2024-02-02T09:36:47.065Z,45.683458800000004
2024-02-02T09:38:48.115Z,45.6431015
2024-02-02T09:40:49.210Z,45.6431022
2024-02-02T09:42:50.280Z,45.7738644
2024-02-02T09:44:51.384Z,45.85780960000001
2024-02-02T09:46:52.487Z,45.9530553
2024-02-02T09:48:53.732Z,45.970813299999996
2024-02-02T09:50:54.655Z,45.95305449999999
2024-02-02T09:52:55.704Z,45.959511
2024-02-02T09:54:56.817Z,45.801306
2024-02-02T09:57:13.407Z,45.6737732
2024-02-02T09:58:58.986Z,45.6899152
2024-02-02T10:01:00.096Z,45.638257200000005
2024-02-02T10:03:01.165Z,45.6753877
2024-02-02T10:05:02.211Z,45.73996100000001
2024-02-02T10:07:03.437Z,45.7205888
2024-02-02T10:09:04.419Z,45.677002400000006
2024-02-02T10:11:05.481Z,45.6673175
2024-02-02T10:13:06.579Z,45.573686800000004
2024-02-02T10:15:07.677Z,45.55592940000001
2024-02-02T10:17:08.776Z,45.55431660000001
2024-02-02T10:19:10.332Z,45.3993382
2024-02-02T10:21:10.937Z,45.271802300000004
2024-02-02T10:24:15.975Z,45.1894701
2024-02-02T10:26:13.650Z,45.1232816
2024-02-02T10:28:14.916Z,45.1345812
2024-02-02T10:30:15.838Z,45.2201432
2024-02-02T10:32:16.877Z,45.37350769999999
2024-02-02T10:34:18.064Z,45.442924600000005
2024-02-02T10:36:19.183Z,45.541399600000005
2024-02-02T10:38:20.135Z,45.564001000000005
2024-02-02T10:40:21.209Z,45.602743000000004
2024-02-02T10:42:22.335Z,45.452607300000004
2024-02-02T10:44:23.388Z,45.4655224
2024-02-02T10:46:24.521Z,45.4154768
2024-02-02T10:48:25.634Z,45.381575500000004
2024-02-02T10:50:26.672Z,45.360591799999995
2024-02-02T10:52:27.749Z,45.536557
2024-02-02T10:54:28.898Z,45.6172747
2024-02-02T10:56:30.010Z,45.60920399999999
2024-02-02T10:58:31.011Z,45.6237335
2024-02-02T11:00:32.150Z,45.631805400000005
2024-02-02T11:02:33.153Z,45.5672324
2024-02-02T11:05:35.429Z,45.5042733
2024-02-02T11:07:35.900Z,45.630190500000005
2024-02-02T11:09:37.001Z,45.5995166
2024-02-02T11:11:45.141Z,45.560771100000004
2024-02-02T11:13:39.120Z,45.54301160000001
2024-02-02T11:15:40.267Z,45.5220239
2024-02-02T11:17:41.312Z,45.441308299999996
2024-02-02T11:19:42.533Z,45.404178599999995
2024-02-02T11:21:43.475Z,45.4687518
2024-02-02T11:23:44.553Z,45.5010394
2024-02-02T11:25:45.665Z,45.47843840000001
2024-02-02T11:27:46.724Z,45.5995143
2024-02-02T11:29:47.834Z,45.8933278
2024-02-02T11:31:48.883Z,46.162926
2024-02-02T11:33:50.021Z,46.4502816
2024-02-02T11:35:51.082Z,46.6294742
2024-02-02T11:37:52.149Z,46.492254499999994
2024-02-02T11:39:53.236Z,46.3324312
2024-02-02T11:41:54.315Z,45.932070599999996
2024-02-02T11:43:55.412Z,45.594670099999995
2024-02-02T11:45:56.551Z,45.379961099999996
2024-02-02T11:47:57.597Z,45.48166390000001
2024-02-02T11:49:58.686Z,45.4493773
2024-02-02T11:52:02.595Z,45.656014000000006
2024-02-02T11:54:00.886Z,45.79161890000001
2024-02-02T11:56:01.924Z,46.103190000000005
2024-02-02T11:58:03.008Z,46.0951201
2024-02-02T12:00:04.240Z,46.1177205
2024-02-02T12:02:05.186Z,46.1645357
2024-02-02T12:04:06.264Z,46.133862799999996
2024-02-02T12:06:07.355Z,46.1064183
2024-02-02T12:08:08.434Z,46.31305759999999
2024-02-02T12:10:09.557Z,46.547140999999996
2024-02-02T12:12:12.500Z,46.58750210000001
2024-02-02T12:14:11.680Z,46.847415700000006
2024-02-02T12:16:12.772Z,46.9087627
2024-02-02T12:18:13.992Z,46.924906
2024-02-02T12:20:15.018Z,46.905532699999995
2024-02-02T12:22:16.031Z,46.99270839999999
2024-02-02T12:24:17.123Z,46.950733899999996
2024-02-02T12:26:18.201Z,46.9023016
2024-02-02T12:28:19.302Z,46.819967399999996
2024-02-02T12:30:20.631Z,46.8328844
2024-02-02T12:32:21.487Z,46.881316600000005
2024-02-02T12:34:22.602Z,46.86517189999999
2024-02-02T12:36:23.657Z,46.863557699999994
2024-02-02T12:38:24.762Z,46.9087607
2024-02-02T12:40:25.797Z,46.7796091
2024-02-02T12:42:26.907Z,46.6666005
2024-02-02T12:44:27.971Z,46.663372
2024-02-02T12:46:29.068Z,46.76669510000001
2024-02-02T12:48:30.202Z,46.787682200000006
2024-02-02T12:50:31.234Z,46.7925242
2024-02-02T12:52:32.320Z,46.8215828
2024-02-02T12:54:33.409Z,46.7505509
2024-02-02T12:56:34.483Z,46.6375416
2024-02-02T12:58:35.581Z,46.51807699999999
2024-02-02T13:00:36.761Z,46.535835199999994
2024-02-02T13:02:37.736Z,46.64722879999999
2024-02-02T13:04:38.913Z,46.7037316
2024-02-02T13:06:39.974Z,46.648843299999996
2024-02-02T13:08:40.982Z,46.7553939
2024-02-02T13:10:42.062Z,46.602029800000004
2024-02-02T13:12:44.308Z,46.170995
2024-02-02T13:14:44.257Z,45.822294600000006
2024-02-02T13:16:45.351Z,45.578528600000006
2024-02-02T13:18:46.484Z,45.199152500000004
2024-02-02T13:20:47.513Z,44.9747577
2024-02-02T13:22:48.596Z,44.97152899999999
2024-02-02T13:24:49.677Z,44.9957446
2024-02-02T13:26:50.774Z,44.8891957
2024-02-02T13:28:51.846Z,44.7971772
2024-02-02T13:30:52.991Z,44.845608500000004
2024-02-02T13:32:54.021Z,44.8100922
2024-02-02T13:34:55.178Z,44.7552033
2024-02-02T13:36:56.232Z,44.7552033
2024-02-02T13:38:57.276Z,44.86659490000001
2024-02-02T13:40:58.357Z,44.9263263
2024-02-02T13:42:59.433Z,45.02803229999999
2024-02-02T13:45:00.566Z,45.0538623
2024-02-02T13:47:01.618Z,45.2023849
2024-02-02T13:49:02.846Z,45.1378103
2024-02-02T13:51:03.800Z,44.9650722
2024-02-02T13:53:04.885Z,44.9037257
2024-02-02T13:55:05.992Z,44.8698237
2024-02-02T13:57:07.076Z,44.68901339999999
2024-02-02T13:59:08.135Z,44.83592120000001
2024-02-02T14:01:09.246Z,45.011888500000005
2024-02-02T14:03:10.327Z,45.023189099999996
2024-02-02T14:05:11.390Z,45.1103644
2024-02-02T14:07:12.580Z,45.2185279
2024-02-02T14:09:13.572Z,45.0554763
2024-02-02T14:11:14.644Z,45.00704520000001
2024-02-02T14:13:15.728Z,45.0700057
2024-02-02T14:15:16.824Z,45.0570919
2024-02-02T14:17:17.883Z,45.039333799999994
2024-02-02T14:19:19.036Z,45.03287629999999
2024-02-02T14:21:21.104Z,44.98444489999999
2024-02-02T14:23:21.136Z,44.8859681
2024-02-02T14:25:22.233Z,44.78264779999999
2024-02-02T14:27:23.318Z,44.708386399999995
2024-02-02T14:29:24.414Z,44.71968700000001
2024-02-02T14:31:25.523Z,44.7245301
2024-02-02T14:33:26.688Z,44.626052900000005
2024-02-02T14:35:27.716Z,44.758432
2024-02-02T14:37:28.760Z,44.889196399999996
2024-02-02T14:39:29.855Z,45.055475
2024-02-02T14:41:30.932Z,45.1184358
2024-02-02T14:44:32.561Z,45.1410368
2024-02-02T14:46:33.634Z,45.1523375
2024-02-02T14:48:34.797Z,45.1184359
2024-02-02T14:50:35.867Z,44.966686599999996
2024-02-02T14:52:36.886Z,44.9666866
2024-02-02T14:54:38.027Z,45.0538629
2024-02-02T14:56:39.048Z,45.1265097
2024-02-02T14:58:40.138Z,45.1700977
2024-02-02T15:00:41.310Z,45.2750315
2024-02-02T15:02:42.334Z,45.37673459999999
2024-02-02T15:04:43.449Z,45.3024731
2024-02-02T15:06:44.517Z,45.38480490000001
2024-02-02T15:08:45.569Z,45.428393299999996
2024-02-02T15:10:46.650Z,45.442923
2024-02-02T15:12:47.754Z,45.455839600000004
2024-02-02T15:14:48.844Z,45.6721616
2024-02-02T15:16:49.906Z,45.6883053
2024-02-02T15:18:51.090Z,45.817451000000005
2024-02-02T15:20:52.065Z,45.8239072
2024-02-02T15:22:53.167Z,45.838435600000004
2024-02-02T15:24:54.249Z,45.78677750000001
2024-02-02T15:26:55.328Z,45.7819351
2024-02-02T15:28:56.406Z,45.78032130000001
2024-02-02T15:30:57.544Z,46.01440420000001
2024-02-02T15:32:58.682Z,46.080590900000004
2024-02-02T15:34:59.773Z,46.164536600000005
2024-02-02T15:37:00.759Z,46.2759244
2024-02-02T15:39:12.332Z,46.3905435
2024-02-02T15:41:02.939Z,46.3324248
2024-02-02T15:43:04.087Z,46.4454305
2024-02-02T15:45:05.114Z,46.5245344
2024-02-02T15:47:06.184Z,46.61655370000001
2024-02-02T15:49:07.346Z,46.708575499999995
2024-02-02T15:51:08.398Z,46.8280397
2024-02-02T15:53:09.449Z,46.8619422
2024-02-02T15:55:10.544Z,46.9410479
2024-02-02T15:57:11.661Z,47.0540566
2024-02-02T15:59:15.099Z,47.1024889
2024-02-02T16:01:13.837Z,47.200969699999995
2024-02-02T16:03:14.931Z,47.3026773
2024-02-02T16:05:15.968Z,47.451204000000004
2024-02-02T16:07:17.056Z,47.45927700000001
2024-02-02T16:09:18.199Z,47.447976
2024-02-02T16:11:19.227Z,47.46734959999999
2024-02-02T16:13:20.311Z,47.5997309
2024-02-02T16:15:21.438Z,47.6433199
2024-02-02T16:17:22.474Z,47.7321136
2024-02-02T16:19:23.608Z,47.8499666
2024-02-02T16:21:24.664Z,47.8338225
2024-02-02T16:23:25.741Z,47.7353456
2024-02-02T16:26:27.358Z,47.693371799999994
2024-02-02T16:28:28.443Z,47.77570299999999
2024-02-02T16:30:29.643Z,47.791846799999995
2024-02-02T16:32:30.611Z,47.819291699999994
2024-02-02T16:34:31.770Z,47.911310799999995
2024-02-02T16:36:32.803Z,48.0436845
2024-02-02T16:39:06.643Z,48.1098722
2024-02-02T16:41:35.520Z,48.41336789999999
2024-02-02T16:42:49.906Z,49.154353
2024-02-02T16:45:37.689Z,49.101890749999995
2024-02-02T16:47:38.794Z,49.194714833333336
2024-02-02T16:49:39.989Z,49.11803225
2024-02-02T16:51:40.954Z,49.1543554
2024-02-02T16:53:42.001Z,49.1446696
2024-02-02T16:55:42.735Z,49.1172252
2024-02-02T16:57:44.230Z,49.1850292
2024-02-02T16:59:45.273Z,49.3416218
2024-02-02T17:01:46.388Z,49.357766399999996
2024-02-02T17:03:47.510Z,49.440098400000004
2024-02-02T17:05:48.546Z,49.440098400000004
2024-02-02T17:07:49.607Z,49.459469199999994
2024-02-02T17:09:50.743Z,49.3948958
2024-02-02T17:11:51.778Z,49.4384823
2024-02-02T17:13:52.878Z,49.5175838
2024-02-02T17:15:53.976Z,49.55794370000001
2024-02-02T17:17:55.059Z,49.535344300000006
2024-02-02T17:19:56.174Z,49.5450298
2024-02-02T17:21:57.221Z,49.4400969
2024-02-02T17:23:58.290Z,49.3787524
2024-02-02T17:25:59.400Z,49.4287958
2024-02-02T17:28:00.480Z,49.4207236
2024-02-02T17:30:01.684Z,49.4223373
2024-02-02T17:32:02.634Z,49.55632870000001
2024-02-02T17:34:03.824Z,49.53211460000001
2024-02-02T17:36:04.836Z,49.554714700000005
2024-02-02T17:38:05.896Z,49.5950726
2024-02-02T17:40:06.989Z,49.643504099999994
2024-02-02T17:42:08.096Z,49.53049950000001
2024-02-02T17:44:09.139Z,49.483682900000005
2024-02-02T17:46:10.251Z,49.494984900000006
2024-02-02T17:48:11.422Z,49.441712100000004
2024-02-02T17:50:12.596Z,49.417496
2024-02-02T17:52:13.495Z,49.499828
2024-02-02T17:54:14.603Z,49.5498727
2024-02-02T17:56:15.661Z,49.4158814
2024-02-02T17:58:16.804Z,49.4562394
2024-02-02T18:00:17.888Z,49.49175539999999
2024-02-02T18:02:18.912Z,49.56440099999999
2024-02-02T18:04:20.013Z,49.5288854
2024-02-02T18:06:21.250Z,49.5353431
2024-02-02T18:08:22.352Z,49.5369581
2024-02-02T18:11:23.789Z,49.5046722
2024-02-02T18:13:24.885Z,49.428797900000006
2024-02-02T18:15:26.010Z,49.50628640000001
2024-02-02T18:17:27.084Z,49.65157520000001
2024-02-02T18:19:28.274Z,49.65641720000001
2024-02-02T18:21:29.244Z,49.38843490000001
2024-02-02T18:23:30.330Z,49.196327600000004
2024-02-02T18:25:31.459Z,48.9105876
2024-02-02T18:27:32.537Z,48.639379899999994
2024-02-02T18:29:33.566Z,48.4924739
2024-02-02T18:31:34.651Z,48.5279881
2024-02-02T18:33:35.765Z,48.4488846
2024-02-02T18:35:36.827Z,48.47632840000001
2024-02-02T18:37:37.936Z,48.434353900000005
2024-02-02T18:39:39.012Z,48.345564399999994
2024-02-02T18:41:40.123Z,48.30843589999999
2024-02-02T18:43:41.157Z,48.348793
2024-02-02T18:45:42.279Z,48.33587859999999
2024-02-02T18:47:43.367Z,48.26969009999999
2024-02-02T18:49:44.572Z,48.319734999999994
2024-02-02T18:51:45.547Z,48.4149805
2024-02-02T18:53:46.587Z,48.4149813
2024-02-02T18:55:49.444Z,48.377850900000006
2024-02-02T18:57:48.816Z,48.4262802
2024-02-02T18:59:49.855Z,48.4585681
2024-02-02T19:01:50.938Z,48.484397699999995
2024-02-02T19:03:52.237Z,48.5618853
2024-02-02T19:05:53.150Z,48.721706
2024-02-02T19:07:54.226Z,48.821797200000006
2024-02-02T19:09:55.288Z,48.781438400000006
2024-02-02T19:11:56.370Z,48.758837799999995
2024-02-02T19:13:57.442Z,48.795969299999996
2024-02-02T19:15:58.521Z,48.7685249
2024-02-02T19:17:59.655Z,48.7991978
2024-02-02T19:20:00.769Z,48.831484200000006
2024-02-02T19:22:01.946Z,48.7620677
2024-02-02T19:24:03.232Z,48.72009379999999
2024-02-02T19:26:03.963Z,48.757224799999996
2024-02-02T19:28:05.054Z,48.781439999999996
2024-02-02T19:30:06.163Z,48.871844800000005
2024-02-02T19:32:07.228Z,48.9703191
2024-02-02T19:34:08.440Z,49.0203646
2024-02-02T19:36:09.405Z,49.0768664
2024-02-02T19:38:10.492Z,49.1075391
2024-02-02T19:40:11.561Z,48.9138167
2024-02-02T19:42:13.022Z,48.7652985
2024-02-02T19:44:13.747Z,48.67650939999999
2024-02-02T19:46:14.819Z,48.58287669999999
2024-02-02T19:48:15.978Z,48.53121709999999
2024-02-02T19:50:16.995Z,48.629691699999995
2024-02-02T19:52:18.055Z,48.6765069
2024-02-02T19:54:19.209Z,48.6991077
2024-02-02T19:56:20.233Z,48.6845789
2024-02-02T19:58:21.733Z,48.5909458
2024-02-02T20:00:22.425Z,48.5796449
2024-02-02T20:02:28.443Z,48.6345312
2024-02-02T20:05:26.648Z,48.636145
2024-02-02T20:07:26.427Z,48.62645869999999
2024-02-02T20:09:27.341Z,48.616772600000004
2024-02-02T20:11:28.369Z,48.594171
2024-02-02T20:13:29.464Z,48.56672579999999
2024-02-02T20:15:30.603Z,48.60224149999999
2024-02-02T20:17:31.665Z,48.6539006
2024-02-02T20:19:32.808Z,48.695873999999996
2024-02-02T20:21:33.886Z,48.736233600000006
2024-02-02T20:23:34.907Z,48.750763
2024-02-02T20:25:35.980Z,48.70717509999999
2024-02-02T20:27:37.131Z,48.7152466
2024-02-02T20:29:38.151Z,48.70233210000001
2024-02-02T20:31:39.256Z,48.6119301
2024-02-02T20:33:40.408Z,48.6200027